Latest Weather Observations for Jervis Bay Airfield

IDN60901

Issued at 6:31 pm EDT Tuesday 10 December 2019 (issued every 10 minutes, with the page automatically refreshed every 10 minutes)

About weather observations | Map of Canberra area stations | Latest observations for Canberra area | Other Formats
Station Details ID: 068264 Name: JERVIS BAY AIRFIELD AWS Lat: -35.14 Lon: 150.70 Height: 57.18 m
Data from the previous 72 hours. | See also: Recent months at Jervis Bay Airfield
Date/Time
EDT
Temp
°C
App
Temp
°C
Dew
Point
°C
Rel
Hum
%
Delta-T
°C
Wind Press
QNH
hPa
Press
MSL
hPa
Rain since
9am
mm
Dir  Spd
km/h
Gust
km/h
Spd
kts
Gust
kts
10/06:30pm 18.7 14.8 15.6 82 1.8 S 30 43 16 23 1015.2 1015.0 0.0
10/06:00pm 19.0 15.3 15.9 82 1.8 SSW 30 39 16 21 1014.7 1014.5 0.0
10/05:30pm 20.2 17.3 16.0 77 2.5 S 26 35 14 19 1014.3 1014.1 0.0
10/05:00pm 20.6 16.9 16.0 75 2.8 SSW 30 41 16 22 1013.9 1013.7 0.0
10/04:30pm 20.7 17.0 15.9 74 2.9 S 30 46 16 25 1013.6 1013.4 0.0
10/04:00pm 21.0 17.5 15.5 71 3.3 S 28 39 15 21 1013.3 1013.1 0.0
10/03:30pm 21.5 17.1 15.6 69 3.5 S 33 44 18 24 1013.3 1013.1 0.0
10/03:00pm 21.9 17.3 15.0 65 4.1 S 33 48 18 26 1013.0 1012.8 0.0
10/02:30pm 22.5 19.0 16.5 69 3.7 SSW 30 44 16 24 1012.7 1012.5 0.0
10/02:27pm 22.2 18.9 16.0 68 3.7 SSW 28 41 15 22 1013.0 1012.8 0.0
10/02:00pm 21.6 19.4 18.8 84 1.8 SSW 28 39 15 21 1012.7 1012.5 0.0
10/01:30pm 21.1 17.9 18.7 86 1.5 SSW 33 43 18 23 1012.6 1012.4 0.0
10/01:00pm 21.3 19.3 19.2 88 1.3 SSW 28 37 15 20 1013.0 1012.8 0.0
10/12:54pm 21.2 19.5 18.9 87 1.5 SSW 26 35 14 19 1012.9 1012.7 0.0
10/12:30pm 20.6 19.7 19.1 91 0.9 SW 22 32 12 17 1013.2 1013.0 0.0
10/12:00pm 20.4 18.8 19.1 92 0.8 SSW 26 33 14 18 1013.0 1012.8 0.0
10/11:30am 19.7 19.0 19.4 98 0.2 SSW 22 33 12 18 1013.2 1013.0 0.0
10/11:00am 19.7 17.1 19.4 98 0.2 SSW 32 43 17 23 1013.1 1012.9 0.0
10/10:30am 19.5 16.8 19.2 98 0.2 SSW 32 43 17 23 1013.0 1012.8 0.0
10/10:00am 19.5 16.7 19.0 97 0.3 SSW 32 41 17 22 1012.9 1012.7 0.0
10/09:54am 19.7 17.6 18.9 95 0.5 SSW 28 41 15 22 1012.9 1012.7 0.0
10/09:46am 20.1 18.1 18.4 90 1.1 SSW 26 35 14 19 1012.8 1012.6 0.0
10/09:30am 20.9 19.3 18.3 85 1.6 SSW 24 35 13 19 1012.5 1012.3 0.0
10/09:00am 22.8 23.4 19.4 81 2.2 NNE 15 20 8 11 1011.6 1011.4 0.0
10/08:30am 21.2 22.1 19.3 89 1.2 NNE 13 17 7 9 1011.7 1011.5 0.0
10/08:00am 20.4 21.7 20.1 98 0.2 NNE 13 17 7 9 1011.7 1011.5 0.0
10/07:50am 19.9 21.0 19.6 98 0.2 NNE 13 17 7 9 1011.7 1011.5 0.0
10/07:30am 19.9 20.6 19.6 98 0.2 NNE 15 20 8 11 1011.7 1011.5 0.0
10/07:29am 19.9 20.6 19.6 98 0.2 NNE 15 20 8 11 1011.7 1011.5 0.0
10/07:28am 19.7 20.3 19.4 98 0.2 NNE 15 20 8 11 1011.7 1011.5 0.0
10/07:00am 19.2 19.6 18.9 98 0.2 NNE 15 20 8 11 1011.8 1011.6 0.0
10/06:30am 18.8 19.0 18.5 98 0.2 NNE 15 20 8 11 1011.8 1011.6 0.0
10/06:00am 18.7 18.8 18.4 98 0.2 NNE 15 22 8 12 1011.7 1011.5 0.0
10/05:41am 18.3 18.3 18.0 98 0.2 NNE 15 19 8 10 1011.7 1011.5 0.0
10/05:30am 18.3 18.3 18.0 98 0.2 NNE 15 19 8 10 1011.7 1011.5 0.0
10/05:01am 18.5 18.5 18.2 98 0.2 NE 15 19 8 10 1011.7 1011.5 0.0
10/05:00am 18.5 18.2 18.2 98 0.2 NE 17 19 9 10 1011.7 1011.5 0.0
10/04:30am 18.9 18.4 18.6 98 0.2 NE 19 22 10 12 1011.7 1011.5 0.0
10/04:00am 19.1 18.7 18.8 98 0.2 NNE 19 22 10 12 1011.8 1011.6 0.0
10/03:30am 19.2 18.6 18.9 98 0.2 NNE 20 26 11 14 1012.2 1012.0 0.0
10/03:00am 19.2 18.6 18.9 98 0.2 NNE 20 28 11 15 1012.6 1012.4 0.0
10/02:42am 19.2 18.6 18.9 98 0.2 NNE 20 30 11 16 1012.7 1012.5 0.0
10/02:30am 19.3 18.4 19.0 98 0.2 NNE 22 30 12 16 1012.9 1012.7 0.0
10/02:05am 19.4 18.9 19.1 98 0.2 NNE 20 26 11 14 1013.3 1013.1 0.0
10/02:00am 19.4 18.9 19.1 98 0.2 NNE 20 30 11 16 1013.3 1013.1 0.0
10/01:30am 19.5 19.2 19.2 98 0.2 NNE 19 26 10 14 1013.8 1013.6 0.0
10/01:00am 19.6 19.2 19.3 98 0.2 NNE 20 26 11 14 1014.1 1013.9 0.0
10/12:30am 19.7 19.0 19.4 98 0.2 NNE 22 32 12 17 1014.4 1014.2 0.0
10/12:00am 19.9 18.8 19.4 97 0.3 NNE 24 35 13 19 1014.7 1014.5 0.0
 
Date/Time
EDT
Temp
°C
App
Temp
°C
Dew
Point
°C
Rel
Hum
%
Delta-T
°C
Wind Press
QNH
hPa
Press
MSL
hPa
Rain since
9am
mm
Dir  Spd
km/h
Gust
km/h
Spd
kts
Gust
kts
09/11:30pm 20.0 18.1 19.3 96 0.4 NNE 28 43 15 23 1014.8 1014.6 0.0
09/11:00pm 20.1 18.2 19.3 95 0.5 NNE 28 44 15 24 1014.9 1014.7 0.0
09/10:30pm 20.2 17.5 19.2 94 0.6 NNE 32 44 17 24 1015.0 1014.8 0.0
09/10:13pm 20.2 17.3 19.2 94 0.6 NNE 33 52 18 28 1015.0 1014.8 0.0
09/10:00pm 20.2 16.4 19.0 93 0.8 NNE 37 52 20 28 1015.0 1014.8 0.0
09/09:42pm 20.2 17.4 19.0 93 0.8 NNE 32 50 17 27 1014.9 1014.7 0.0
09/09:30pm 20.2 17.4 19.0 93 0.8 NNE 32 43 17 23 1015.0 1014.8 0.0
09/09:00pm 20.3 16.6 19.1 93 0.8 NNE 37 52 20 28 1014.9 1014.7 0.0
09/08:56pm 20.3 16.6 19.1 93 0.8 NNE 37 56 20 30 1014.9 1014.7 0.0
09/08:30pm 20.4 16.7 19.2 93 0.8 NNE 37 50 20 27 1014.7 1014.5 0.0
09/08:00pm 20.4 17.1 19.2 93 0.8 NNE 35 54 19 29 1014.7 1014.5 0.0
09/07:36pm 20.5 17.2 19.2 92 0.8 NNE 35 54 19 29 1014.7 1014.5 0.0
09/07:30pm 20.5 17.2 19.2 92 0.8 NNE 35 50 19 27 1014.8 1014.6 0.0
09/07:07pm 20.7 16.9 19.0 90 1.1 NE 37 59 20 32 1014.7 1014.5 0.0
09/07:00pm 20.8 16.7 19.1 90 1.1 NE 39 54 21 29 1014.6 1014.4 0.0
09/06:30pm 21.1 17.3 19.0 88 1.3 NE 37 52 20 28 1014.4 1014.2 0.0
09/06:20pm 21.2 17.8 18.9 87 1.5 NE 35 54 19 29 1014.2 1014.0 0.0
09/06:00pm 21.5 17.8 19.1 86 1.5 NE 37 50 20 27 1014.1 1013.9 0.0
09/05:31pm 22.0 18.7 19.2 84 1.8 NE 35 54 19 29 1014.2 1014.0 0.0
09/05:30pm 22.0 18.3 19.2 84 1.8 NE 37 54 20 29 1014.2 1014.0 0.0
09/05:00pm 22.3 18.4 18.7 80 2.3 NE 37 50 20 27 1014.4 1014.2 0.0
09/04:30pm 22.5 18.2 18.7 79 2.4 NNE 39 52 21 28 1014.7 1014.5 0.0
09/04:15pm 22.9 18.4 19.1 79 2.4 NNE 41 59 22 32 1014.6 1014.4 0.0
09/04:00pm 22.7 17.6 18.7 78 2.5 NNE 43 59 23 32 1014.7 1014.5 0.0
09/03:41pm 23.0 18.2 18.5 76 2.8 NNE 41 59 22 32 1015.0 1014.8 0.0
09/03:30pm 23.0 17.9 18.5 76 2.8 NNE 43 56 23 30 1015.2 1015.0 0.0
09/03:01pm 23.6 19.3 18.7 74 3.1 NNE 39 57 21 31 1015.6 1015.4 0.0
09/03:00pm 23.9 19.7 19.0 74 3.1 NNE 39 54 21 29 1015.7 1015.5 0.0
09/02:30pm 23.8 19.5 18.7 73 3.2 NNE 39 54 21 29 1016.1 1016.0 0.0
09/02:00pm 23.5 18.7 18.4 73 3.2 NNE 41 57 22 31 1016.4 1016.3 0.0
09/01:59pm 23.6 19.1 18.3 72 3.3 NNE 39 57 21 31 1016.5 1016.4 0.0
09/01:30pm 24.4 20.5 18.8 71 3.6 NNE 37 48 20 26 1017.1 1017.0 0.0
09/01:00pm 24.4 20.7 19.2 73 3.3 NNE 37 46 20 25 1017.6 1017.5 0.0
09/12:30pm 24.1 20.3 19.0 73 3.3 NNE 37 50 20 27 1018.0 1017.9 0.0
09/12:00pm 23.9 20.3 18.5 72 3.4 NNE 35 50 19 27 1018.3 1018.2 0.0
09/11:30am 23.7 20.5 18.6 73 3.2 NNE 33 48 18 26 1018.8 1018.7 0.0
09/11:00am 23.8 20.6 18.7 73 3.2 NNE 33 46 18 25 1019.4 1019.2 0.0
09/10:30am 23.4 20.3 18.5 74 3.1 NNE 32 44 17 24 1019.7 1019.5 0.0
09/10:00am 23.3 20.8 18.8 76 2.8 NNE 30 44 16 24 1020.0 1019.8 0.0
09/09:30am 22.8 19.5 17.9 74 3.1 NNE 32 48 17 26 1020.1 1019.9 0.0
09/09:00am 22.6 20.0 18.6 78 2.5 NNE 30 46 16 25 1020.5 1020.3 0.0
09/08:30am 21.8 19.6 17.8 78 2.5 NNE 26 37 14 20 1020.8 1020.6 0.0
09/08:00am 21.3 19.8 18.5 84 1.8 NNE 24 33 13 18 1020.9 1020.7 0.0
09/07:30am 21.0 20.4 18.9 88 1.3 NNE 20 28 11 15 1021.1 1020.9 0.0
09/07:00am 20.2 19.5 18.7 91 0.9 NNE 20 30 11 16 1021.1 1020.9 0.0
09/06:30am 20.0 19.9 18.7 92 0.8 NNE 17 24 9 13 1020.9 1020.7 0.0
09/06:00am 19.8 19.1 18.3 91 0.9 NNE 19 26 10 14 1021.0 1020.8 0.0
09/05:30am 19.7 19.5 18.4 92 0.8 NNE 17 22 9 12 1020.8 1020.6 0.0
09/05:00am 19.6 19.7 18.4 93 0.7 NNE 15 22 8 12 1020.7 1020.5 0.0
09/04:30am 19.5 20.0 18.3 93 0.7 NNE 13 20 7 11 1020.6 1020.4 0.0
09/04:00am 19.2 19.1 17.9 92 0.8 NNE 15 20 8 11 1020.5 1020.3 0.0
09/03:30am 19.6 19.1 17.9 90 1.0 NNE 17 24 9 13 1020.6 1020.4 0.0
09/03:00am 19.8 19.3 17.8 88 1.2 NNE 17 26 9 14 1020.8 1020.6 0.0
09/02:30am 19.8 19.7 17.8 88 1.2 NNE 15 24 8 13 1020.9 1020.7 0.0
09/02:00am 19.9 18.9 17.5 86 1.5 NNE 19 26 10 14 1021.0 1020.8 0.0
09/01:30am 20.0 19.3 17.4 85 1.6 NNE 17 26 9 14 1021.4 1021.2 0.0
09/01:00am 20.0 18.9 17.2 84 1.7 NNE 19 28 10 15 1021.6 1021.4 0.0
09/12:30am 20.1 18.9 17.1 83 1.8 NNE 19 26 10 14 1021.8 1021.6 0.0
09/12:00am 20.2 19.0 17.0 82 1.9 NNE 19 28 10 15 1021.9 1021.7 0.0
 
Date/Time
EDT
Temp
°C
App
Temp
°C
Dew
Point
°C
Rel
Hum
%
Delta-T
°C
Wind Press
QNH
hPa
Press
MSL
hPa
Rain since
9am
mm
Dir  Spd
km/h
Gust
km/h
Spd
kts
Gust
kts
08/11:30pm 20.1 18.9 17.1 83 1.8 NNE 19 28 10 15 1021.8 1021.6 0.0
08/11:00pm 20.0 19.2 17.0 83 1.8 NNE 17 24 9 13 1022.0 1021.8 0.0
08/10:30pm 19.7 19.5 17.7 88 1.2 ENE 15 22 8 12 1022.2 1022.0 0.0
08/10:00pm 19.6 19.3 17.4 87 1.3 ENE 15 22 8 12 1022.1 1021.9 0.0
08/09:30pm 19.7 18.4 16.9 84 1.7 ENE 19 24 10 13 1021.8 1021.6 0.0
08/09:00pm 19.6 18.6 16.6 83 1.8 ENE 17 26 9 14 1021.6 1021.4 0.0
08/08:30pm 19.7 18.7 16.5 82 1.9 ENE 17 24 9 13 1021.3 1021.1 0.0
08/08:00pm 19.7 18.3 16.5 82 1.9 ENE 19 30 10 16 1021.0 1020.8 0.0
08/07:30pm 19.8 18.3 16.4 81 2.0 ENE 19 26 10 14 1020.5 1020.3 0.0
08/07:00pm 20.0 18.4 16.4 80 2.2 ENE 20 28 11 15 1020.1 1019.9 0.0
08/06:30pm 20.2 18.5 16.2 78 2.4 ENE 20 28 11 15 1019.8 1019.6 0.0
08/06:00pm 20.5 18.4 16.1 76 2.6 ENE 22 30 12 16 1019.5 1019.3 0.0
08/05:30pm 21.3 18.7 15.8 71 3.3 ENE 24 33 13 18 1019.2 1019.0 0.0
08/05:00pm 21.6 18.6 15.9 70 3.4 ENE 26 35 14 19 1019.3 1019.1 0.0
08/04:30pm 21.9 18.8 15.7 68 3.7 ENE 26 35 14 19 1019.3 1019.1 0.0
08/04:00pm 22.1 19.0 15.5 66 3.9 ENE 26 35 14 19 1019.3 1019.1 0.0
08/03:30pm 22.7 19.9 16.3 67 3.9 ENE 26 37 14 20 1019.4 1019.2 0.0
08/03:00pm 23.3 20.1 15.4 61 4.7 ENE 26 35 14 19 1019.5 1019.3 0.0
08/02:30pm 22.4 18.7 15.0 63 4.4 E 28 39 15 21 1019.7 1019.5 0.0
08/02:00pm 22.9 20.0 15.2 62 4.6 ENE 24 35 13 19 1019.6 1019.4 0.0
08/01:30pm 22.2 18.3 14.3 61 4.6 E 28 39 15 21 1019.6 1019.4 0.0
08/01:00pm 23.0 19.4 15.3 62 4.6 ENE 28 35 15 19 1019.6 1019.4 0.0
08/12:30pm 22.7 19.1 15.3 63 4.4 ENE 28 37 15 20 1019.5 1019.3 0.0
08/12:00pm 22.6 18.9 15.0 62 4.5 ENE 28 35 15 19 1019.7 1019.5 0.0
08/11:30am 23.1 20.3 15.4 62 4.6 ENE 24 30 13 16 1019.8 1019.6 0.0
08/11:00am 23.0 21.0 15.6 63 4.4 NE 20 32 11 17 1019.7 1019.5 0.0
08/10:30am 21.9 18.7 14.3 62 4.5 NE 24 28 13 15 1019.6 1019.4 0.0
08/10:00am 21.3 17.8 13.5 61 4.5 NE 24 30 13 16 1019.5 1019.3 0.0
08/09:30am 21.4 18.5 14.1 63 4.3 NNE 22 28 12 15 1019.4 1019.2 0.0
08/09:00am 21.0 18.7 14.2 65 4.0 NNE 19 26 10 14 1019.3 1019.1 0.0
08/08:30am 19.9 18.6 13.6 67 3.6 NNE 13 20 7 11 1019.2 1019.0 0.0
08/08:00am 19.4 18.5 14.9 75 2.6 NNE 13 17 7 9 1019.0 1018.9 0.0
08/07:30am 18.7 18.6 15.0 79 2.2 N 9 13 5 7 1018.8 1018.7 0.0
08/07:00am 17.9 17.7 14.8 82 1.8 N 9 11 5 6 1018.6 1018.5 0.0
08/06:30am 17.3 16.2 14.4 83 1.7 N 13 22 7 12 1018.2 1018.1 0.0
08/06:00am 16.7 15.4 13.6 82 1.7 NNE 13 19 7 10 1017.7 1017.6 0.0
08/05:30am 16.1 14.5 13.8 86 1.3 NE 15 19 8 10 1017.3 1017.2 0.0
08/05:00am 15.8 14.7 13.1 84 1.5 NE 11 13 6 7 1017.3 1017.2 0.0
08/04:30am 16.4 14.8 12.8 79 2.0 NNE 13 17 7 9 1017.0 1016.9 0.0
08/04:00am 16.3 14.7 12.8 80 1.9 NNE 13 17 7 9 1016.8 1016.7 0.0
08/03:30am 16.4 14.8 12.9 80 1.9 NNE 13 17 7 9 1016.9 1016.8 0.0
08/03:00am 16.2 15.0 12.7 80 1.9 NNE 11 13 6 7 1017.0 1016.9 0.0
08/02:30am 16.6 16.1 12.8 78 2.1 ENE 7 9 4 5 1017.1 1017.0 0.0
08/02:00am 17.3 17.0 13.2 77 2.3 E 7 9 4 5 1017.2 1017.1 0.0
08/01:30am 17.4 17.3 13.3 77 2.3 ENE 6 7 3 4 1017.3 1017.2 0.0
08/01:00am 17.5 17.7 14.6 83 1.7 E 7 9 4 5 1017.4 1017.3 0.0
08/12:30am 17.3 18.2 15.1 87 1.3 ENE 4 7 2 4 1017.5 1017.4 0.0
08/12:00am 17.0 17.7 15.5 91 0.9 ENE 6 9 3 5 1017.6 1017.5 0.0
 
Date/Time
EDT
Temp
°C
App
Temp
°C
Dew
Point
°C
Rel
Hum
%
Delta-T
°C
Wind Press
QNH
hPa
Press
MSL
hPa
Rain since
9am
mm
Dir  Spd
km/h
Gust
km/h
Spd
kts
Gust
kts
07/11:30pm 16.9 17.3 15.4 91 0.9 ENE 7 11 4 6 1017.6 1017.5 0.0
07/11:00pm 16.8 16.4 15.3 91 0.9 ENE 11 15 6 8 1017.3 1017.2 0.0
07/10:30pm 16.5 16.4 14.9 90 0.9 ENE 9 15 5 8 1017.1 1017.0 0.0
07/10:00pm 16.6 15.7 14.8 89 1.0 ENE 13 17 7 9 1016.8 1016.7 0.0
07/09:30pm 16.9 15.3 14.9 88 1.2 E 17 24 9 13 1016.6 1016.5 0.0
07/09:00pm 17.0 14.9 14.8 87 1.3 E 19 26 10 14 1016.1 1016.0 0.0
07/08:30pm 17.3 14.7 14.9 86 1.4 ESE 22 30 12 16 1015.5 1015.3 0.0
07/08:00pm 17.6 14.7 15.0 85 1.5 ESE 24 32 13 17 1015.2 1015.0 0.0
07/07:30pm 18.1 14.9 15.4 84 1.6 SE 26 39 14 21 1014.8 1014.6 0.0
07/07:18pm 18.2 13.9 15.5 84 1.6 SE 32 43 17 23 1014.6 1014.4 0.0
07/07:00pm 18.6 14.4 15.7 83 1.7 SE 32 39 17 21 1014.0 1013.8 0.0
07/06:41pm 19.4 17.9 16.4 83 1.8 SE 19 24 10 13 1013.5 1013.3 0.0

Latest Capital City Observations: Canberra | Sydney | Melbourne | Brisbane | Adelaide | Perth | Hobart | Darwin

Other formats

Comma delimited format used in spreadsheet applications
http://www.bom.gov.au/fwo/IDN60903/IDN60903.94751.axf

JavaScript Object Notation format (JSON) in row-major order
http://www.bom.gov.au/fwo/IDN60903/IDN60903.94751.json

Data quality

Most of these data are generated automatically and are frequently updated. Quality checks on data are not normally performed. It is possible for incorrect values to appear. Refer to information at About Latest Weather Observations and please check the disclaimer before using these data.